sensor_id;sensor_type;location;lat;lon;timestamp;pressure;altitude;pressure_sealevel;temperature;humidity
35910;BME280;22004;49.120;-0.200;2023-04-28T00:02:10;100982.00;;;14.53;91.19
35910;BME280;22004;49.120;-0.200;2023-04-28T00:04:36;100986.56;;;14.53;91.50
35910;BME280;22004;49.120;-0.200;2023-04-28T00:07:01;100989.88;;;14.55;91.37
35910;BME280;22004;49.120;-0.200;2023-04-28T00:09:27;100991.16;;;14.59;90.96
35910;BME280;22004;49.120;-0.200;2023-04-28T00:11:52;100996.56;;;14.59;90.82
35910;BME280;22004;49.120;-0.200;2023-04-28T00:14:17;100985.34;;;14.62;90.44
35910;BME280;22004;49.120;-0.200;2023-04-28T00:16:43;100986.81;;;14.64;90.40
35910;BME280;22004;49.120;-0.200;2023-04-28T00:19:08;100978.09;;;14.62;90.27
35910;BME280;22004;49.120;-0.200;2023-04-28T00:21:33;100980.19;;;14.67;90.16
35910;BME280;22004;49.120;-0.200;2023-04-28T00:23:59;100979.16;;;14.68;90.18
35910;BME280;22004;49.120;-0.200;2023-04-28T00:26:24;100981.19;;;14.66;90.16
35910;BME280;22004;49.120;-0.200;2023-04-28T00:28:50;100975.38;;;14.62;89.96
35910;BME280;22004;49.120;-0.200;2023-04-28T00:31:15;100982.47;;;14.70;90.31
35910;BME280;22004;49.120;-0.200;2023-04-28T00:33:41;100984.72;;;14.60;90.18
35910;BME280;22004;49.120;-0.200;2023-04-28T00:36:07;100977.66;;;14.59;89.83
35910;BME280;22004;49.120;-0.200;2023-04-28T00:38:33;100980.78;;;14.62;90.39
35910;BME280;22004;49.120;-0.200;2023-04-28T00:40:59;100977.91;;;14.70;90.08
35910;BME280;22004;49.120;-0.200;2023-04-28T00:43:24;100971.22;;;14.66;89.95
35910;BME280;22004;49.120;-0.200;2023-04-28T00:45:50;100980.34;;;14.59;90.45
35910;BME280;22004;49.120;-0.200;2023-04-28T00:48:16;100974.72;;;14.60;91.12
35910;BME280;22004;49.120;-0.200;2023-04-28T00:50:43;100973.69;;;14.61;90.62
35910;BME280;22004;49.120;-0.200;2023-04-28T00:53:09;100976.41;;;14.61;90.40
35910;BME280;22004;49.120;-0.200;2023-04-28T00:55:37;100980.97;;;14.61;90.52
35910;BME280;22004;49.120;-0.200;2023-04-28T00:58:04;100976.00;;;14.58;90.64
35910;BME280;22004;49.120;-0.200;2023-04-28T01:00:29;100974.72;;;14.54;90.74
35910;BME280;22004;49.120;-0.200;2023-04-28T01:02:56;100979.47;;;14.52;90.92
35910;BME280;22004;49.120;-0.200;2023-04-28T01:05:24;100972.63;;;14.49;91.16
35910;BME280;22004;49.120;-0.200;2023-04-28T01:07:49;100971.09;;;14.46;91.45
35910;BME280;22004;49.120;-0.200;2023-04-28T01:10:15;100979.63;;;14.43;91.87
35910;BME280;22004;49.120;-0.200;2023-04-28T01:12:40;100981.66;;;14.41;91.98
35910;BME280;22004;49.120;-0.200;2023-04-28T01:15:06;100986.06;;;14.42;91.86
35910;BME280;22004;49.120;-0.200;2023-04-28T01:17:36;100979.38;;;14.38;91.89
35910;BME280;22004;49.120;-0.200;2023-04-28T01:20:01;100987.50;;;14.38;92.03
35910;BME280;22004;49.120;-0.200;2023-04-28T01:22:28;100989.38;;;14.38;92.20
35910;BME280;22004;49.120;-0.200;2023-04-28T01:24:53;100986.25;;;14.41;92.16
35910;BME280;22004;49.120;-0.200;2023-04-28T01:27:19;100980.22;;;14.39;92.29
35910;BME280;22004;49.120;-0.200;2023-04-28T01:29:44;100978.72;;;14.36;92.50
35910;BME280;22004;49.120;-0.200;2023-04-28T01:32:10;100977.28;;;14.34;92.49
35910;BME280;22004;49.120;-0.200;2023-04-28T01:34:35;100964.00;;;14.32;92.59
35910;BME280;22004;49.120;-0.200;2023-04-28T01:37:01;100969.78;;;14.29;92.64
35910;BME280;22004;49.120;-0.200;2023-04-28T01:39:26;100969.34;;;14.26;92.63
35910;BME280;22004;49.120;-0.200;2023-04-28T01:41:51;100966.25;;;14.29;92.66
35910;BME280;22004;49.120;-0.200;2023-04-28T01:44:17;100964.13;;;14.24;92.75
35910;BME280;22004;49.120;-0.200;2023-04-28T01:46:42;100967.88;;;14.23;92.91
35910;BME280;22004;49.120;-0.200;2023-04-28T01:49:07;100966.19;;;14.22;92.52
35910;BME280;22004;49.120;-0.200;2023-04-28T01:51:33;100962.66;;;14.21;92.62
35910;BME280;22004;49.120;-0.200;2023-04-28T01:53:58;100959.72;;;14.16;92.33
35910;BME280;22004;49.120;-0.200;2023-04-28T01:56:23;100958.09;;;14.22;92.43
35910;BME280;22004;49.120;-0.200;2023-04-28T01:58:49;100957.47;;;14.20;92.42
35910;BME280;22004;49.120;-0.200;2023-04-28T02:01:14;100967.66;;;14.18;92.33
35910;BME280;22004;49.120;-0.200;2023-04-28T02:03:40;100961.00;;;14.20;92.30
35910;BME280;22004;49.120;-0.200;2023-04-28T02:06:05;100955.81;;;14.19;92.77
35910;BME280;22004;49.120;-0.200;2023-04-28T02:08:31;100966.16;;;14.15;92.78
35910;BME280;22004;49.120;-0.200;2023-04-28T02:10:56;100957.03;;;14.16;93.07
35910;BME280;22004;49.120;-0.200;2023-04-28T02:13:22;100957.63;;;14.12;93.34
35910;BME280;22004;49.120;-0.200;2023-04-28T02:15:48;100960.53;;;14.10;93.31
35910;BME280;22004;49.120;-0.200;2023-04-28T02:18:13;100953.47;;;14.09;93.50
35910;BME280;22004;49.120;-0.200;2023-04-28T02:20:39;100957.38;;;14.07;93.40
35910;BME280;22004;49.120;-0.200;2023-04-28T02:23:04;100965.47;;;14.07;93.60
35910;BME280;22004;49.120;-0.200;2023-04-28T02:25:30;100964.66;;;14.06;93.59
35910;BME280;22004;49.120;-0.200;2023-04-28T02:27:55;100959.91;;;14.08;93.55
35910;BME280;22004;49.120;-0.200;2023-04-28T02:30:21;100954.25;;;14.03;93.63
35910;BME280;22004;49.120;-0.200;2023-04-28T02:32:47;100958.84;;;14.03;94.01
35910;BME280;22004;49.120;-0.200;2023-04-28T02:35:13;100964.84;;;14.05;93.81
35910;BME280;22004;49.120;-0.200;2023-04-28T02:37:38;100961.91;;;14.00;93.82
35910;BME280;22004;49.120;-0.200;2023-04-28T02:40:04;100959.84;;;14.02;94.04
35910;BME280;22004;49.120;-0.200;2023-04-28T02:42:30;100972.50;;;14.01;93.85
35910;BME280;22004;49.120;-0.200;2023-04-28T02:44:55;100965.25;;;14.02;93.84
35910;BME280;22004;49.120;-0.200;2023-04-28T02:47:20;100970.63;;;14.02;93.96
35910;BME280;22004;49.120;-0.200;2023-04-28T02:49:45;100967.53;;;13.98;94.28
35910;BME280;22004;49.120;-0.200;2023-04-28T02:52:11;100966.28;;;14.01;94.08
35910;BME280;22004;49.120;-0.200;2023-04-28T02:54:36;100973.78;;;14.05;93.96
35910;BME280;22004;49.120;-0.200;2023-04-28T02:57:02;100975.03;;;14.03;93.92
35910;BME280;22004;49.120;-0.200;2023-04-28T02:59:29;100973.34;;;14.02;94.15
35910;BME280;22004;49.120;-0.200;2023-04-28T03:01:54;100973.53;;;14.00;94.32
35910;BME280;22004;49.120;-0.200;2023-04-28T03:04:20;100974.38;;;14.01;93.80
35910;BME280;22004;49.120;-0.200;2023-04-28T03:06:45;100966.28;;;14.01;93.82
35910;BME280;22004;49.120;-0.200;2023-04-28T03:09:11;100972.72;;;14.00;94.28
35910;BME280;22004;49.120;-0.200;2023-04-28T03:11:38;100972.72;;;14.00;93.91
35910;BME280;22004;49.120;-0.200;2023-04-28T03:14:03;100972.91;;;13.98;94.36
35910;BME280;22004;49.120;-0.200;2023-04-28T03:16:28;100972.25;;;13.96;94.36
35910;BME280;22004;49.120;-0.200;2023-04-28T03:18:54;100966.88;;;13.96;94.25
35910;BME280;22004;49.120;-0.200;2023-04-28T03:21:19;100980.34;;;13.96;94.39
35910;BME280;22004;49.120;-0.200;2023-04-28T03:23:45;100978.06;;;13.93;94.23
35910;BME280;22004;49.120;-0.200;2023-04-28T03:26:10;100974.34;;;13.94;94.12
35910;BME280;22004;49.120;-0.200;2023-04-28T03:28:35;100963.53;;;13.94;93.84
35910;BME280;22004;49.120;-0.200;2023-04-28T03:31:01;100983.47;;;13.93;93.93
35910;BME280;22004;49.120;-0.200;2023-04-28T03:33:27;100975.38;;;13.93;93.99
35910;BME280;22004;49.120;-0.200;2023-04-28T03:35:52;100973.25;;;13.88;94.10
35910;BME280;22004;49.120;-0.200;2023-04-28T03:38:18;100979.06;;;13.92;93.93
35910;BME280;22004;49.120;-0.200;2023-04-28T03:40:43;100974.72;;;13.91;94.19
35910;BME280;22004;49.120;-0.200;2023-04-28T03:43:09;100974.13;;;13.95;94.06
35910;BME280;22004;49.120;-0.200;2023-04-28T03:45:34;100968.72;;;13.95;93.54
35910;BME280;22004;49.120;-0.200;2023-04-28T03:47:59;100972.47;;;13.94;93.95
35910;BME280;22004;49.120;-0.200;2023-04-28T03:50:25;100966.44;;;13.92;93.66
35910;BME280;22004;49.120;-0.200;2023-04-28T03:52:50;100967.53;;;13.98;93.46
35910;BME280;22004;49.120;-0.200;2023-04-28T03:55:15;100970.22;;;13.98;93.04
35910;BME280;22004;49.120;-0.200;2023-04-28T03:57:41;100961.47;;;13.96;93.26
35910;BME280;22004;49.120;-0.200;2023-04-28T04:00:07;100965.00;;;13.96;93.25
35910;BME280;22004;49.120;-0.200;2023-04-28T04:02:32;100971.44;;;13.95;93.23
35910;BME280;22004;49.120;-0.200;2023-04-28T04:04:58;100967.53;;;13.98;93.21
35910;BME280;22004;49.120;-0.200;2023-04-28T04:07:23;100970.59;;;13.95;93.49
35910;BME280;22004;49.120;-0.200;2023-04-28T04:09:48;100969.38;;;13.98;93.49
35910;BME280;22004;49.120;-0.200;2023-04-28T04:12:14;100973.09;;;13.96;93.56
35910;BME280;22004;49.120;-0.200;2023-04-28T04:14:39;100979.16;;;13.99;93.25
35910;BME280;22004;49.120;-0.200;2023-04-28T04:17:05;100973.78;;;14.05;93.01
35910;BME280;22004;49.120;-0.200;2023-04-28T04:19:30;100977.06;;;14.01;93.49
35910;BME280;22004;49.120;-0.200;2023-04-28T04:21:55;100974.81;;;14.04;93.15
35910;BME280;22004;49.120;-0.200;2023-04-28T04:24:21;100981.88;;;14.05;93.00
35910;BME280;22004;49.120;-0.200;2023-04-28T04:26:46;100979.78;;;14.01;93.51
35910;BME280;22004;49.120;-0.200;2023-04-28T04:29:11;100983.50;;;14.00;93.44
35910;BME280;22004;49.120;-0.200;2023-04-28T04:31:37;100984.13;;;14.02;93.82
35910;BME280;22004;49.120;-0.200;2023-04-28T04:34:02;100982.69;;;13.99;93.46
35910;BME280;22004;49.120;-0.200;2023-04-28T04:36:27;100978.16;;;14.06;93.30
35910;BME280;22004;49.120;-0.200;2023-04-28T04:38:53;100991.59;;;14.00;92.98
35910;BME280;22004;49.120;-0.200;2023-04-28T04:41:18;100983.13;;;14.03;92.47
35910;BME280;22004;49.120;-0.200;2023-04-28T04:43:46;100988.91;;;14.00;91.26
35910;BME280;22004;49.120;-0.200;2023-04-28T04:46:12;100995.38;;;14.05;91.16
35910;BME280;22004;49.120;-0.200;2023-04-28T04:48:37;101002.06;;;14.09;89.45
35910;BME280;22004;49.120;-0.200;2023-04-28T04:51:03;100995.03;;;14.15;92.54
35910;BME280;22004;49.120;-0.200;2023-04-28T04:53:28;101010.38;;;14.08;91.66
35910;BME280;22004;49.120;-0.200;2023-04-28T04:55:54;101009.72;;;14.06;89.24
35910;BME280;22004;49.120;-0.200;2023-04-28T04:58:19;101003.34;;;14.13;91.00
35910;BME280;22004;49.120;-0.200;2023-04-28T05:00:45;101001.25;;;14.15;89.42
35910;BME280;22004;49.120;-0.200;2023-04-28T05:03:10;100997.72;;;14.15;92.29
35910;BME280;22004;49.120;-0.200;2023-04-28T05:05:36;100997.53;;;14.16;88.44
35910;BME280;22004;49.120;-0.200;2023-04-28T05:08:01;101004.25;;;14.27;88.20
35910;BME280;22004;49.120;-0.200;2023-04-28T05:10:27;101006.69;;;14.22;89.88
35910;BME280;22004;49.120;-0.200;2023-04-28T05:12:53;101020.66;;;14.26;90.36
35910;BME280;22004;49.120;-0.200;2023-04-28T05:15:18;101012.38;;;14.27;89.81
35910;BME280;22004;49.120;-0.200;2023-04-28T05:17:44;101015.47;;;14.31;88.61
35910;BME280;22004;49.120;-0.200;2023-04-28T05:20:09;101014.66;;;14.30;86.28
35910;BME280;22004;49.120;-0.200;2023-04-28T05:22:35;101018.00;;;14.32;87.81
35910;BME280;22004;49.120;-0.200;2023-04-28T05:25:00;101024.28;;;14.39;84.79
35910;BME280;22004;49.120;-0.200;2023-04-28T05:27:25;101027.41;;;14.43;85.32
35910;BME280;22004;49.120;-0.200;2023-04-28T05:29:51;101030.28;;;14.41;86.01
35910;BME280;22004;49.120;-0.200;2023-04-28T05:32:16;101026.13;;;14.39;86.00
35910;BME280;22004;49.120;-0.200;2023-04-28T05:34:42;101034.88;;;14.41;86.50
35910;BME280;22004;49.120;-0.200;2023-04-28T05:37:07;101044.00;;;14.40;85.95
35910;BME280;22004;49.120;-0.200;2023-04-28T05:39:32;101042.97;;;14.41;85.05
35910;BME280;22004;49.120;-0.200;2023-04-28T05:41:57;101034.47;;;14.44;87.26
35910;BME280;22004;49.120;-0.200;2023-04-28T05:44:23;101038.41;;;14.41;86.04
35910;BME280;22004;49.120;-0.200;2023-04-28T05:46:49;101046.13;;;14.44;86.31
35910;BME280;22004;49.120;-0.200;2023-04-28T05:49:14;101053.19;;;14.45;85.58
35910;BME280;22004;49.120;-0.200;2023-04-28T05:51:40;101046.50;;;14.41;85.99
35910;BME280;22004;49.120;-0.200;2023-04-28T05:54:05;101051.91;;;14.41;86.87
35910;BME280;22004;49.120;-0.200;2023-04-28T05:56:31;101051.41;;;14.53;88.51
35910;BME280;22004;49.120;-0.200;2023-04-28T05:58:56;101055.72;;;14.47;86.05
35910;BME280;22004;49.120;-0.200;2023-04-28T06:01:23;101054.09;;;14.53;87.31
35910;BME280;22004;49.120;-0.200;2023-04-28T06:03:48;101060.44;;;14.45;87.38
35910;BME280;22004;49.120;-0.200;2023-04-28T06:06:13;101062.38;;;14.51;86.84
35910;BME280;22004;49.120;-0.200;2023-04-28T06:08:39;101073.34;;;14.43;86.48
35910;BME280;22004;49.120;-0.200;2023-04-28T06:11:05;101059.06;;;14.49;87.36
35910;BME280;22004;49.120;-0.200;2023-04-28T06:13:31;101065.50;;;14.48;88.79
35910;BME280;22004;49.120;-0.200;2023-04-28T06:15:56;101070.06;;;14.47;87.69
35910;BME280;22004;49.120;-0.200;2023-04-28T06:18:22;101080.88;;;14.47;89.21
35910;BME280;22004;49.120;-0.200;2023-04-28T06:20:48;101076.03;;;14.43;89.80
35910;BME280;22004;49.120;-0.200;2023-04-28T06:23:13;101080.09;;;14.54;90.56
35910;BME280;22004;49.120;-0.200;2023-04-28T06:25:39;101093.59;;;14.54;90.49
35910;BME280;22004;49.120;-0.200;2023-04-28T06:28:05;101081.94;;;14.53;91.10
35910;BME280;22004;49.120;-0.200;2023-04-28T06:30:31;101085.06;;;14.57;90.84
35910;BME280;22004;49.120;-0.200;2023-04-28T06:32:56;101091.97;;;14.59;90.98
35910;BME280;22004;49.120;-0.200;2023-04-28T06:35:22;101087.59;;;14.58;91.00
35910;BME280;22004;49.120;-0.200;2023-04-28T06:37:47;101085.72;;;14.59;89.37
35910;BME280;22004;49.120;-0.200;2023-04-28T06:40:13;101085.59;;;14.73;89.40
35910;BME280;22004;49.120;-0.200;2023-04-28T06:42:38;101084.94;;;14.71;89.81
35910;BME280;22004;49.120;-0.200;2023-04-28T06:45:04;101086.00;;;14.70;89.05
35910;BME280;22004;49.120;-0.200;2023-04-28T06:47:29;101090.19;;;14.80;88.37
35910;BME280;22004;49.120;-0.200;2023-04-28T06:49:55;101092.38;;;14.97;87.95
35910;BME280;22004;49.120;-0.200;2023-04-28T06:52:20;101090.91;;;14.95;86.24
35910;BME280;22004;49.120;-0.200;2023-04-28T06:54:46;101093.00;;;14.99;86.24
35910;BME280;22004;49.120;-0.200;2023-04-28T06:57:12;101097.66;;;15.12;85.89
35910;BME280;22004;49.120;-0.200;2023-04-28T06:59:37;101092.44;;;15.79;82.88
35910;BME280;22004;49.120;-0.200;2023-04-28T07:02:03;101087.63;;;16.40;80.06
35910;BME280;22004;49.120;-0.200;2023-04-28T07:04:28;101091.00;;;15.89;83.01
35910;BME280;22004;49.120;-0.200;2023-04-28T07:06:54;101095.59;;;16.22;78.98
35910;BME280;22004;49.120;-0.200;2023-04-28T07:09:19;101089.75;;;16.25;78.31
35910;BME280;22004;49.120;-0.200;2023-04-28T07:11:44;101092.03;;;16.15;80.89
35910;BME280;22004;49.120;-0.200;2023-04-28T07:14:10;101105.94;;;16.91;78.32
35910;BME280;22004;49.120;-0.200;2023-04-28T07:16:35;101098.28;;;16.15;79.92
35910;BME280;22004;49.120;-0.200;2023-04-28T07:19:01;101100.88;;;16.95;76.57
35910;BME280;22004;49.120;-0.200;2023-04-28T07:21:26;101104.09;;;18.00;75.75
35910;BME280;22004;49.120;-0.200;2023-04-28T07:23:53;101109.38;;;18.20;73.50
35910;BME280;22004;49.120;-0.200;2023-04-28T07:26:21;101099.59;;;19.35;68.15
35910;BME280;22004;49.120;-0.200;2023-04-28T07:28:47;101104.50;;;20.40;64.75
35910;BME280;22004;49.120;-0.200;2023-04-28T07:31:12;101112.97;;;19.97;65.04
35910;BME280;22004;49.120;-0.200;2023-04-28T07:33:37;101112.00;;;19.31;70.50
35910;BME280;22004;49.120;-0.200;2023-04-28T07:36:03;101113.47;;;20.18;66.03
35910;BME280;22004;49.120;-0.200;2023-04-28T07:38:28;101118.69;;;19.47;67.29
35910;BME280;22004;49.120;-0.200;2023-04-28T07:40:54;101111.78;;;19.63;67.37
35910;BME280;22004;49.120;-0.200;2023-04-28T07:43:19;101116.47;;;18.46;71.25
35910;BME280;22004;49.120;-0.200;2023-04-28T07:45:45;101117.66;;;17.75;72.57
35910;BME280;22004;49.120;-0.200;2023-04-28T07:48:13;101128.66;;;19.05;70.51
35910;BME280;22004;49.120;-0.200;2023-04-28T07:50:38;101123.06;;;18.81;66.69
35910;BME280;22004;49.120;-0.200;2023-04-28T07:53:04;101127.94;;;18.73;68.40
35910;BME280;22004;49.120;-0.200;2023-04-28T07:55:29;101134.44;;;19.45;68.12
35910;BME280;22004;49.120;-0.200;2023-04-28T07:57:55;101132.50;;;18.97;67.91
35910;BME280;22004;49.120;-0.200;2023-04-28T08:00:23;101135.44;;;18.52;68.77
35910;BME280;22004;49.120;-0.200;2023-04-28T08:02:48;101135.00;;;18.05;70.59
35910;BME280;22004;49.120;-0.200;2023-04-28T08:05:15;101140.56;;;16.96;74.82
35910;BME280;22004;49.120;-0.200;2023-04-28T08:07:41;101147.47;;;18.13;70.94
35910;BME280;22004;49.120;-0.200;2023-04-28T08:10:08;101141.34;;;18.68;68.72
35910;BME280;22004;49.120;-0.200;2023-04-28T08:12:33;101142.75;;;19.32;67.10
35910;BME280;22004;49.120;-0.200;2023-04-28T08:14:58;101146.72;;;18.06;69.58
35910;BME280;22004;49.120;-0.200;2023-04-28T08:17:24;101145.84;;;17.80;69.66
35910;BME280;22004;49.120;-0.200;2023-04-28T08:19:49;101146.59;;;17.49;72.18
35910;BME280;22004;49.120;-0.200;2023-04-28T08:22:15;101154.75;;;16.78;73.52
35910;BME280;22004;49.120;-0.200;2023-04-28T08:24:40;101153.13;;;17.35;72.65
35910;BME280;22004;49.120;-0.200;2023-04-28T08:27:06;101145.31;;;17.97;71.23
35910;BME280;22004;49.120;-0.200;2023-04-28T08:29:32;101148.56;;;17.80;70.39
35910;BME280;22004;49.120;-0.200;2023-04-28T08:31:58;101151.00;;;18.64;68.78
35910;BME280;22004;49.120;-0.200;2023-04-28T08:34:23;101149.72;;;18.73;70.00
35910;BME280;22004;49.120;-0.200;2023-04-28T08:36:50;101154.47;;;18.52;71.14
35910;BME280;22004;49.120;-0.200;2023-04-28T08:39:16;101158.13;;;17.38;72.10
35910;BME280;22004;49.120;-0.200;2023-04-28T08:41:41;101157.59;;;17.99;71.35
35910;BME280;22004;49.120;-0.200;2023-04-28T08:44:08;101151.91;;;17.76;71.06
35910;BME280;22004;49.120;-0.200;2023-04-28T08:46:34;101160.50;;;17.73;72.60
35910;BME280;22004;49.120;-0.200;2023-04-28T08:49:01;101161.19;;;16.90;73.40
35910;BME280;22004;49.120;-0.200;2023-04-28T08:51:43;101165.81;;;16.83;74.64
35910;BME280;22004;49.120;-0.200;2023-04-28T08:54:09;101167.03;;;16.61;75.79
35910;BME280;22004;49.120;-0.200;2023-04-28T08:56:36;101171.75;;;18.90;69.52
35910;BME280;22004;49.120;-0.200;2023-04-28T08:59:03;101178.13;;;18.77;67.42
35910;BME280;22004;49.120;-0.200;2023-04-28T09:01:32;101188.81;;;18.22;68.40
35910;BME280;22004;49.120;-0.200;2023-04-28T09:04:00;101182.81;;;18.38;71.35
35910;BME280;22004;49.120;-0.200;2023-04-28T09:06:31;101190.16;;;17.16;71.13
35910;BME280;22004;49.120;-0.200;2023-04-28T09:09:23;101181.78;;;17.18;72.62
35910;BME280;22004;49.120;-0.200;2023-04-28T09:11:58;101187.25;;;16.98;72.66
35910;BME280;22004;49.120;-0.200;2023-04-28T09:14:28;101189.00;;;17.50;72.25
35910;BME280;22004;49.120;-0.200;2023-04-28T09:16:54;101198.09;;;17.11;73.24
35910;BME280;22004;49.120;-0.200;2023-04-28T09:19:20;101196.88;;;16.94;73.18
35910;BME280;22004;49.120;-0.200;2023-04-28T09:21:53;101201.81;;;17.75;71.74
35910;BME280;22004;49.120;-0.200;2023-04-28T09:24:35;101207.38;;;17.35;72.65
35910;BME280;22004;49.120;-0.200;2023-04-28T09:27:04;101211.44;;;17.77;72.00
35910;BME280;22004;49.120;-0.200;2023-04-28T09:29:30;101203.03;;;17.34;72.70
35910;BME280;22004;49.120;-0.200;2023-04-28T09:32:17;101212.09;;;16.88;73.29
35910;BME280;22004;49.120;-0.200;2023-04-28T09:37:22;101211.41;;;18.97;69.74
35910;BME280;22004;49.120;-0.200;2023-04-28T09:39:49;101220.09;;;18.31;70.35
35910;BME280;22004;49.120;-0.200;2023-04-28T09:42:34;101227.31;;;18.44;72.55
35910;BME280;22004;49.120;-0.200;2023-04-28T09:45:02;101230.38;;;19.04;67.44
35910;BME280;22004;49.120;-0.200;2023-04-28T09:47:28;101232.16;;;18.42;69.53
35910;BME280;22004;49.120;-0.200;2023-04-28T09:49:55;101238.38;;;17.79;72.39
35910;BME280;22004;49.120;-0.200;2023-04-28T09:52:22;101241.53;;;16.91;72.91
35910;BME280;22004;49.120;-0.200;2023-04-28T09:54:52;101240.47;;;16.92;72.42
35910;BME280;22004;49.120;-0.200;2023-04-28T09:57:18;101250.50;;;16.72;73.77
35910;BME280;22004;49.120;-0.200;2023-04-28T09:59:46;101246.72;;;16.79;73.54
35910;BME280;22004;49.120;-0.200;2023-04-28T10:02:16;101250.50;;;16.92;73.39
35910;BME280;22004;49.120;-0.200;2023-04-28T10:04:46;101255.84;;;17.96;73.12
35910;BME280;22004;49.120;-0.200;2023-04-28T10:07:15;101257.75;;;17.89;70.05
35910;BME280;22004;49.120;-0.200;2023-04-28T10:09:44;101249.59;;;18.27;71.15
35910;BME280;22004;49.120;-0.200;2023-04-28T10:12:16;101254.47;;;17.74;72.28
35910;BME280;22004;49.120;-0.200;2023-04-28T10:14:42;101252.09;;;18.60;67.51
35910;BME280;22004;49.120;-0.200;2023-04-28T10:17:09;101249.50;;;18.09;69.25
35910;BME280;22004;49.120;-0.200;2023-04-28T10:19:35;101250.44;;;18.28;69.05
35910;BME280;22004;49.120;-0.200;2023-04-28T10:27:37;101243.31;;;17.95;70.99
35910;BME280;22004;49.120;-0.200;2023-04-28T10:32:39;101252.41;;;18.77;68.44
35910;BME280;22004;49.120;-0.200;2023-04-28T10:40:46;101253.47;;;17.62;70.11
35910;BME280;22004;49.120;-0.200;2023-04-28T10:43:13;101266.69;;;18.34;68.44
35910;BME280;22004;49.120;-0.200;2023-04-28T10:48:14;101259.28;;;18.80;69.13
35910;BME280;22004;49.120;-0.200;2023-04-28T10:54:06;101265.09;;;18.27;68.76
35910;BME280;22004;49.120;-0.200;2023-04-28T10:56:32;101259.03;;;19.68;68.46
35910;BME280;22004;49.120;-0.200;2023-04-28T10:58:58;101254.16;;;18.33;68.39
35910;BME280;22004;49.120;-0.200;2023-04-28T11:01:28;101263.44;;;18.19;67.95
35910;BME280;22004;49.120;-0.200;2023-04-28T11:03:58;101267.38;;;17.92;69.38
35910;BME280;22004;49.120;-0.200;2023-04-28T11:06:29;101266.13;;;17.88;69.95
35910;BME280;22004;49.120;-0.200;2023-04-28T11:11:37;101270.91;;;17.92;70.74
35910;BME280;22004;49.120;-0.200;2023-04-28T11:19:20;101267.56;;;18.28;68.48
35910;BME280;22004;49.120;-0.200;2023-04-28T11:21:47;101271.34;;;18.27;68.75
35910;BME280;22004;49.120;-0.200;2023-04-28T11:24:13;101268.88;;;18.19;67.76
35910;BME280;22004;49.120;-0.200;2023-04-28T11:26:39;101263.28;;;18.46;67.46
35910;BME280;22004;49.120;-0.200;2023-04-28T11:29:05;101268.28;;;18.49;70.19
35910;BME280;22004;49.120;-0.200;2023-04-28T11:31:30;101269.25;;;18.61;67.92
35910;BME280;22004;49.120;-0.200;2023-04-28T11:33:59;101273.59;;;17.99;69.15
35910;BME280;22004;49.120;-0.200;2023-04-28T11:36:29;101270.28;;;18.28;68.62
35910;BME280;22004;49.120;-0.200;2023-04-28T11:38:57;101269.38;;;18.73;68.84
35910;BME280;22004;49.120;-0.200;2023-04-28T11:41:23;101268.44;;;19.10;66.38
35910;BME280;22004;49.120;-0.200;2023-04-28T11:43:49;101265.63;;;18.04;68.61
35910;BME280;22004;49.120;-0.200;2023-04-28T11:46:16;101281.81;;;18.24;70.68
35910;BME280;22004;49.120;-0.200;2023-04-28T11:48:42;101280.31;;;18.59;68.39
35910;BME280;22004;49.120;-0.200;2023-04-28T11:51:07;101278.94;;;18.82;65.76
35910;BME280;22004;49.120;-0.200;2023-04-28T11:53:43;101297.25;;;18.93;67.43
35910;BME280;22004;49.120;-0.200;2023-04-28T11:56:08;101284.91;;;17.89;69.35
35910;BME280;22004;49.120;-0.200;2023-04-28T11:58:34;101284.34;;;17.80;70.31
35910;BME280;22004;49.120;-0.200;2023-04-28T12:01:12;101275.06;;;18.71;66.52
35910;BME280;22004;49.120;-0.200;2023-04-28T12:03:43;101288.59;;;19.83;67.16
35910;BME280;22004;49.120;-0.200;2023-04-28T12:06:08;101285.03;;;19.02;66.26
35910;BME280;22004;49.120;-0.200;2023-04-28T12:08:34;101285.84;;;19.46;66.88
35910;BME280;22004;49.120;-0.200;2023-04-28T12:11:10;101281.19;;;20.20;65.14
35910;BME280;22004;49.120;-0.200;2023-04-28T12:13:37;101291.13;;;18.98;67.83
35910;BME280;22004;49.120;-0.200;2023-04-28T12:16:04;101288.69;;;19.15;65.78
35910;BME280;22004;49.120;-0.200;2023-04-28T12:18:34;101284.78;;;19.29;67.20
35910;BME280;22004;49.120;-0.200;2023-04-28T12:21:03;101283.78;;;18.80;66.57
35910;BME280;22004;49.120;-0.200;2023-04-28T12:23:33;101284.22;;;18.77;67.46
35910;BME280;22004;49.120;-0.200;2023-04-28T12:26:00;101289.22;;;19.05;66.69
35910;BME280;22004;49.120;-0.200;2023-04-28T12:28:38;101281.00;;;18.55;66.55
35910;BME280;22004;49.120;-0.200;2023-04-28T12:31:05;101278.59;;;18.02;69.65
35910;BME280;22004;49.120;-0.200;2023-04-28T12:33:33;101285.69;;;18.41;69.28
35910;BME280;22004;49.120;-0.200;2023-04-28T12:36:03;101291.28;;;19.28;69.19
35910;BME280;22004;49.120;-0.200;2023-04-28T12:38:29;101283.97;;;18.78;67.85
35910;BME280;22004;49.120;-0.200;2023-04-28T12:40:55;101283.38;;;18.76;67.92
35910;BME280;22004;49.120;-0.200;2023-04-28T12:43:21;101288.41;;;18.73;67.26
35910;BME280;22004;49.120;-0.200;2023-04-28T12:45:51;101288.75;;;19.08;67.13
35910;BME280;22004;49.120;-0.200;2023-04-28T12:48:21;101284.59;;;18.80;66.78
35910;BME280;22004;49.120;-0.200;2023-04-28T12:50:49;101288.47;;;19.16;66.20
35910;BME280;22004;49.120;-0.200;2023-04-28T12:53:14;101296.44;;;19.36;65.82
35910;BME280;22004;49.120;-0.200;2023-04-28T12:55:39;101298.81;;;18.82;66.43
35910;BME280;22004;49.120;-0.200;2023-04-28T12:58:05;101305.91;;;18.83;68.14
35910;BME280;22004;49.120;-0.200;2023-04-28T13:00:31;101319.56;;;18.39;67.31
35910;BME280;22004;49.120;-0.200;2023-04-28T13:02:56;101315.56;;;18.48;67.67
35910;BME280;22004;49.120;-0.200;2023-04-28T13:05:22;101315.06;;;18.26;67.89
35910;BME280;22004;49.120;-0.200;2023-04-28T13:07:48;101317.00;;;18.50;67.74